createdAt,value
2018-09-18T00:02:05.745Z,29.07
2018-09-18T00:04:33.280Z,28.90
2018-09-18T00:07:00.800Z,29.77
2018-09-18T00:09:28.398Z,33.87
2018-09-18T00:11:55.935Z,36.03
2018-09-18T00:14:23.460Z,30.00
2018-09-18T00:16:50.992Z,25.97
2018-09-18T00:19:18.632Z,31.57
2018-09-18T00:21:46.142Z,29.37
2018-09-18T00:24:13.751Z,31.93
2018-09-18T00:26:41.314Z,27.50
2018-09-18T00:29:08.934Z,28.30
2018-09-18T00:31:36.573Z,29.53
2018-09-18T00:34:04.121Z,29.77
2018-09-18T00:36:31.650Z,30.47
2018-09-18T00:38:59.190Z,26.67
2018-09-18T00:41:26.777Z,26.53
2018-09-18T00:43:54.304Z,28.33
2018-09-18T00:46:21.820Z,37.00
2018-09-18T00:48:49.364Z,28.83
2018-09-18T00:51:16.894Z,28.17
2018-09-18T00:53:44.438Z,24.60
2018-09-18T00:56:12.006Z,28.50
2018-09-18T00:58:39.524Z,32.90
2018-09-18T01:01:07.104Z,28.63
2018-09-18T01:03:34.621Z,27.13
2018-09-18T01:06:02.201Z,27.50
2018-09-18T01:08:29.750Z,30.50
2018-09-18T01:10:57.309Z,36.90
2018-09-18T01:13:24.821Z,31.17
2018-09-18T01:15:52.358Z,29.17
2018-09-18T01:18:19.907Z,30.60
2018-09-18T01:20:47.434Z,37.10
2018-09-18T01:23:15.116Z,30.60
2018-09-18T01:25:42.647Z,27.40
2018-09-18T01:28:10.169Z,28.20
2018-09-18T01:30:37.693Z,28.43
2018-09-18T01:33:05.274Z,27.97
2018-09-18T01:35:32.810Z,31.57
2018-09-18T01:38:00.343Z,26.87
2018-09-18T01:40:28.783Z,29.60
2018-09-18T01:42:56.956Z,31.53
2018-09-18T01:45:24.657Z,31.63
2018-09-18T01:47:52.168Z,31.47
2018-09-18T01:50:19.703Z,31.20
2018-09-18T01:52:47.232Z,30.20
2018-09-18T01:55:14.762Z,29.43
2018-09-18T01:57:42.338Z,33.13
2018-09-18T02:00:09.969Z,31.70
2018-09-18T02:02:37.492Z,25.40
2018-09-18T02:05:05.018Z,32.33
2018-09-18T02:07:32.575Z,25.83
2018-09-18T02:10:00.117Z,31.13
2018-09-18T02:12:27.939Z,24.10
2018-09-18T02:14:55.483Z,31.60
2018-09-18T02:17:23.041Z,28.10
2018-09-18T02:19:50.664Z,27.37
2018-09-18T02:22:18.217Z,25.60
2018-09-18T02:24:45.725Z,27.30
2018-09-18T02:27:13.373Z,29.07
2018-09-18T02:29:40.897Z,28.23
2018-09-18T02:32:08.534Z,25.53
2018-09-18T02:34:36.094Z,34.93
2018-09-18T02:37:03.718Z,26.00
2018-09-18T02:39:31.296Z,31.43
2018-09-18T02:41:58.812Z,33.67
2018-09-18T02:44:26.355Z,28.13
2018-09-18T02:46:53.945Z,28.20
2018-09-18T02:49:21.508Z,31.00
2018-09-18T02:51:49.043Z,32.53
2018-09-18T02:54:16.615Z,28.77
2018-09-18T02:56:44.201Z,28.70
2018-09-18T02:59:11.730Z,28.70
2018-09-18T03:01:39.254Z,28.60
2018-09-18T03:04:06.786Z,37.00
2018-09-18T03:06:34.340Z,30.03
2018-09-18T03:09:01.926Z,21.63
2018-09-18T03:11:29.548Z,29.33
2018-09-18T03:13:57.029Z,23.73
2018-09-18T03:16:24.551Z,31.07
2018-09-18T03:18:52.082Z,37.87
2018-09-18T03:21:19.628Z,30.60
2018-09-18T03:23:47.162Z,30.27
2018-09-18T03:26:14.703Z,33.80
2018-09-18T03:28:42.296Z,31.63
2018-09-18T03:31:09.809Z,29.00
2018-09-18T03:33:37.507Z,29.33
2018-09-18T03:36:04.956Z,29.73
2018-09-18T03:38:32.499Z,31.97
2018-09-18T03:41:00.078Z,29.53
2018-09-18T03:43:27.610Z,29.57
2018-09-18T03:45:55.146Z,28.37
2018-09-18T03:48:22.809Z,26.63
2018-09-18T03:50:50.330Z,28.43
2018-09-18T03:53:17.872Z,23.93
2018-09-18T03:55:45.422Z,26.43
2018-09-18T03:58:12.942Z,25.33
2018-09-18T04:00:40.536Z,26.27
2018-09-18T04:03:08.058Z,28.20
2018-09-18T04:05:35.655Z,28.37
2018-09-18T04:08:03.216Z,24.50
2018-09-18T04:10:30.848Z,27.77
2018-09-18T04:12:58.397Z,28.20
2018-09-18T04:15:25.922Z,34.97
2018-09-18T04:17:54.104Z,28.10
2018-09-18T04:20:21.696Z,29.43
2018-09-18T04:22:49.242Z,26.27
2018-09-18T04:25:16.811Z,23.97
2018-09-18T04:27:44.362Z,26.40
2018-09-18T04:30:11.890Z,28.90
2018-09-18T04:32:39.597Z,25.67
2018-09-18T04:35:07.155Z,33.00
2018-09-18T04:37:34.686Z,31.17
2018-09-18T04:40:02.306Z,28.43
2018-09-18T04:42:29.895Z,27.03
2018-09-18T04:44:57.419Z,27.80
2018-09-18T04:47:25.166Z,27.77
2018-09-18T04:49:52.719Z,25.63
2018-09-18T04:52:20.264Z,29.13
2018-09-18T04:54:47.817Z,27.73
2018-09-18T04:57:15.450Z,26.37
2018-09-18T04:59:42.986Z,25.50
2018-09-18T05:02:10.598Z,27.07
2018-09-18T05:04:38.212Z,24.00
2018-09-18T05:07:05.772Z,22.63
2018-09-18T05:09:33.286Z,21.90
2018-09-18T05:12:00.859Z,31.17
2018-09-18T05:14:28.405Z,27.43
2018-09-18T05:16:55.921Z,32.90
2018-09-18T05:19:23.471Z,22.53
2018-09-18T05:21:50.981Z,26.97
2018-09-18T05:24:18.575Z,22.07
2018-09-18T05:26:46.130Z,28.03
2018-09-18T05:29:13.702Z,23.17
2018-09-18T05:31:41.426Z,30.47
2018-09-18T05:34:09.147Z,26.70
2018-09-18T05:36:36.712Z,19.07
2018-09-18T05:39:06.483Z,23.73
2018-09-18T05:41:34.043Z,21.53
2018-09-18T05:44:01.605Z,24.40
2018-09-18T05:46:29.136Z,23.87
2018-09-18T05:48:56.694Z,23.37
2018-09-18T05:51:24.234Z,25.30
2018-09-18T05:53:51.824Z,27.10
2018-09-18T05:56:19.363Z,24.27
2018-09-18T05:58:46.984Z,26.70
2018-09-18T06:01:15.034Z,23.47
2018-09-18T06:03:42.655Z,28.43
2018-09-18T06:06:10.171Z,31.33
2018-09-18T06:08:37.728Z,26.87
2018-09-18T06:11:05.342Z,22.80
2018-09-18T06:13:33.028Z,28.53
2018-09-18T06:16:00.579Z,26.73
2018-09-18T06:18:28.244Z,31.93
2018-09-18T06:20:55.812Z,28.80
2018-09-18T06:23:23.316Z,30.73
2018-09-18T06:25:50.937Z,20.90
2018-09-18T06:28:18.470Z,27.70
2018-09-18T06:30:46.026Z,21.27
2018-09-18T06:33:13.693Z,22.33
2018-09-18T06:35:41.227Z,25.43
2018-09-18T06:38:08.770Z,27.37
2018-09-18T06:40:36.349Z,26.40
2018-09-18T06:43:03.844Z,23.53
2018-09-18T06:45:31.377Z,22.27
2018-09-18T06:47:58.943Z,62.07
2018-09-18T06:50:26.978Z,22.20
2018-09-18T06:52:54.499Z,28.60
2018-09-18T06:55:22.216Z,26.47
2018-09-18T06:57:49.744Z,21.23
2018-09-18T07:00:17.264Z,26.47
2018-09-18T07:02:44.793Z,28.00
2018-09-18T07:05:12.392Z,34.50
2018-09-18T07:07:39.917Z,30.20
2018-09-18T07:10:07.451Z,36.63
2018-09-18T07:12:34.965Z,28.37
2018-09-18T07:15:02.534Z,26.87
2018-09-18T07:17:30.116Z,36.03
2018-09-18T07:19:57.723Z,33.97
2018-09-18T07:22:25.299Z,20.47
2018-09-18T07:24:52.873Z,19.90
2018-09-18T07:27:20.469Z,26.53
2018-09-18T07:29:48.033Z,21.07
2018-09-18T07:32:15.618Z,28.63
2018-09-18T07:34:43.143Z,28.50
2018-09-18T07:37:10.752Z,35.23
2018-09-18T07:39:38.299Z,35.53
2018-09-18T07:42:05.908Z,45.70
2018-09-18T07:44:33.465Z,46.90
2018-09-18T07:47:01.002Z,42.93
2018-09-18T07:49:28.542Z,41.97
2018-09-18T07:51:56.084Z,40.20
2018-09-18T07:54:23.641Z,31.37
2018-09-18T07:56:51.170Z,31.10
2018-09-18T07:59:18.733Z,44.40
2018-09-18T08:01:46.333Z,30.30
2018-09-18T08:04:13.881Z,53.67
2018-09-18T08:06:41.465Z,29.80
2018-09-18T08:09:10.059Z,30.57
2018-09-18T08:11:37.727Z,32.13
2018-09-18T08:14:05.344Z,36.13
2018-09-18T08:16:32.943Z,44.73
2018-09-18T08:19:00.660Z,34.10
2018-09-18T08:21:28.069Z,31.10
2018-09-18T08:23:55.669Z,35.87
2018-09-18T08:26:23.238Z,34.87
2018-09-18T08:28:50.791Z,28.97
2018-09-18T08:31:18.378Z,27.83
2018-09-18T08:33:45.995Z,33.87
2018-09-18T08:36:13.521Z,34.33
2018-09-18T08:38:41.055Z,37.63
2018-09-18T08:41:08.662Z,39.47
2018-09-18T08:43:36.198Z,43.23
2018-09-18T08:46:03.798Z,37.97
2018-09-18T08:48:31.886Z,34.30
2018-09-18T08:51:00.585Z,30.97
2018-09-18T08:53:28.695Z,30.53
2018-09-18T08:55:56.245Z,29.30
2018-09-18T08:58:24.243Z,24.63
2018-09-18T09:00:51.994Z,27.63
2018-09-18T09:03:19.655Z,25.67
2018-09-18T09:05:47.299Z,28.43
2018-09-18T09:08:15.182Z,34.80
2018-09-18T09:10:42.459Z,24.70
2018-09-18T09:13:10.020Z,26.57
2018-09-18T09:15:37.605Z,22.40
2018-09-18T09:18:05.456Z,20.50
2018-09-18T09:20:32.917Z,33.70
2018-09-18T09:23:00.652Z,21.20
2018-09-18T09:25:28.388Z,21.07
2018-09-18T09:27:55.963Z,22.50
2018-09-18T09:30:23.523Z,20.33
2018-09-18T09:32:51.144Z,21.93
2018-09-18T09:35:18.786Z,23.60
2018-09-18T09:37:46.319Z,20.43
2018-09-18T09:40:14.067Z,18.60
2018-09-18T09:42:41.579Z,18.50
2018-09-18T09:45:09.217Z,16.67
2018-09-18T09:47:36.767Z,15.53
2018-09-18T09:50:04.366Z,16.70
2018-09-18T09:52:31.904Z,19.47
2018-09-18T09:54:59.495Z,14.53
2018-09-18T09:57:27.060Z,15.40
2018-09-18T09:59:54.621Z,13.00
2018-09-18T10:02:29.103Z,11.60
2018-09-18T10:04:57.262Z,11.13
2018-09-18T10:07:25.008Z,10.77
2018-09-18T10:09:52.700Z,10.93
2018-09-18T10:12:20.305Z,13.93
2018-09-18T10:14:47.850Z,11.73
2018-09-18T10:17:15.539Z,14.63
2018-09-18T10:19:43.073Z,9.77
2018-09-18T10:22:10.609Z,13.00
2018-09-18T10:24:38.180Z,16.77
2018-09-18T10:27:06.049Z,13.60
2018-09-18T10:29:33.428Z,12.30
2018-09-18T10:32:01.122Z,11.60
2018-09-18T10:34:28.760Z,13.77
2018-09-18T10:36:56.414Z,11.00
2018-09-18T10:39:24.056Z,9.87
2018-09-18T10:41:51.596Z,11.77
2018-09-18T10:44:19.088Z,15.00
2018-09-18T10:46:46.654Z,10.50
2018-09-18T10:49:14.216Z,14.70
2018-09-18T10:51:41.755Z,12.77
2018-09-18T10:54:09.296Z,13.67
2018-09-18T10:56:36.803Z,13.37
2018-09-18T10:59:04.393Z,15.47
2018-09-18T11:01:31.947Z,13.83
2018-09-18T11:03:59.515Z,12.17
2018-09-18T11:06:27.054Z,16.13
2018-09-18T11:08:54.646Z,9.03
2018-09-18T11:11:22.290Z,12.63
2018-09-18T11:13:49.908Z,13.50
2018-09-18T11:16:17.466Z,15.90
2018-09-18T11:18:45.028Z,12.53
2018-09-18T11:21:12.611Z,12.23
2018-09-18T11:23:40.247Z,11.97
2018-09-18T11:26:07.770Z,19.00
2018-09-18T11:28:35.360Z,16.87
2018-09-18T11:31:03.010Z,13.03
2018-09-18T11:33:30.568Z,14.50
2018-09-18T11:35:58.231Z,12.30
2018-09-18T11:38:25.785Z,11.97
2018-09-18T11:40:53.446Z,11.73
2018-09-18T11:43:21.044Z,12.43
2018-09-18T11:45:48.673Z,11.20
2018-09-18T11:48:16.309Z,12.07
2018-09-18T11:50:43.868Z,11.43
2018-09-18T11:53:11.403Z,10.50
2018-09-18T11:55:38.959Z,14.43
2018-09-18T11:58:06.504Z,11.97
2018-09-18T12:00:34.062Z,12.53
2018-09-18T12:03:01.691Z,12.97
2018-09-18T12:05:29.228Z,11.93
2018-09-18T12:07:56.816Z,13.20
2018-09-18T12:10:24.511Z,13.60
2018-09-18T12:12:52.030Z,11.40
2018-09-18T12:15:19.633Z,13.07
2018-09-18T12:17:47.255Z,10.07
2018-09-18T12:20:14.923Z,16.90
2018-09-18T12:22:42.806Z,17.37
2018-09-18T12:25:10.311Z,13.37
2018-09-18T12:27:37.939Z,13.13
2018-09-18T12:30:05.777Z,12.67
2018-09-18T12:32:33.349Z,13.30
2018-09-18T12:35:00.979Z,15.67
2018-09-18T12:37:28.523Z,10.47
2018-09-18T12:39:56.053Z,22.80
2018-09-18T12:42:23.715Z,13.50
2018-09-18T12:44:51.183Z,10.80
2018-09-18T12:47:18.747Z,14.20
2018-09-18T12:49:46.424Z,10.27
2018-09-18T12:52:13.862Z,12.50
2018-09-18T12:54:41.403Z,12.17
2018-09-18T12:57:09.090Z,21.93
2018-09-18T12:59:36.600Z,8.70
2018-09-18T13:02:04.246Z,17.30
2018-09-18T13:04:31.797Z,11.50
2018-09-18T13:06:59.460Z,18.23
2018-09-18T13:09:26.999Z,11.00
2018-09-18T13:11:54.538Z,12.63
2018-09-18T13:14:22.134Z,9.93
2018-09-18T13:16:49.664Z,13.53
2018-09-18T13:19:17.239Z,14.07
2018-09-18T13:21:44.828Z,13.33
2018-09-18T13:24:12.360Z,12.40
2018-09-18T13:26:39.923Z,12.30
2018-09-18T13:29:07.525Z,15.30
2018-09-18T13:31:35.101Z,14.33
2018-09-18T13:34:02.738Z,13.03
2018-09-18T13:36:30.529Z,14.50
2018-09-18T13:38:58.100Z,9.63
2018-09-18T13:41:25.715Z,15.37
2018-09-18T13:43:53.267Z,13.63
2018-09-18T13:46:20.871Z,13.63
2018-09-18T13:48:48.367Z,11.67
2018-09-18T13:51:15.916Z,13.60
2018-09-18T13:53:43.498Z,10.93
2018-09-18T13:56:11.031Z,20.70
2018-09-18T13:58:38.732Z,17.47
2018-09-18T14:01:06.387Z,18.57
2018-09-18T14:03:33.901Z,10.73
2018-09-18T14:06:01.433Z,12.33
2018-09-18T14:08:28.971Z,11.97
2018-09-18T14:10:56.503Z,16.17
2018-09-18T14:13:24.123Z,12.10
2018-09-18T14:15:51.790Z,13.70
2018-09-18T14:18:19.336Z,12.83
2018-09-18T14:20:47.437Z,12.73
2018-09-18T14:23:15.018Z,11.90
2018-09-18T14:25:42.601Z,10.80
2018-09-18T14:28:10.152Z,9.83
2018-09-18T14:30:37.742Z,9.90
2018-09-18T14:33:05.355Z,13.70
2018-09-18T14:35:33.050Z,14.10
2018-09-18T14:38:00.666Z,14.90
2018-09-18T14:40:28.224Z,12.40
2018-09-18T14:42:55.759Z,14.97
2018-09-18T14:45:23.380Z,11.43
2018-09-18T14:47:50.916Z,16.13
2018-09-18T14:50:18.457Z,12.80
2018-09-18T14:52:45.988Z,14.03
2018-09-18T14:55:13.627Z,13.70
2018-09-18T14:57:41.179Z,13.20
2018-09-18T15:00:08.761Z,19.33
2018-09-18T15:02:36.333Z,12.53
2018-09-18T15:05:03.957Z,11.10
2018-09-18T15:07:31.531Z,7.90
2018-09-18T15:09:59.126Z,15.30
2018-09-18T15:12:26.664Z,12.00
2018-09-18T15:14:54.277Z,14.30
2018-09-18T15:17:21.911Z,14.00
2018-09-18T15:19:49.457Z,11.47
2018-09-18T15:22:17.037Z,8.63
2018-09-18T15:24:44.617Z,14.60
2018-09-18T15:27:12.169Z,9.50
2018-09-18T15:29:39.739Z,8.43
2018-09-18T15:32:07.427Z,13.43
2018-09-18T15:34:35.019Z,11.43
2018-09-18T15:37:02.583Z,9.40
2018-09-18T15:39:30.239Z,9.90
2018-09-18T15:41:57.809Z,11.10
2018-09-18T15:44:25.363Z,24.20
2018-09-18T15:46:52.941Z,16.73
2018-09-18T15:49:20.511Z,10.93
2018-09-18T15:51:48.171Z,12.80
2018-09-18T15:54:15.663Z,9.30
2018-09-18T15:56:43.236Z,13.77
2018-09-18T15:59:10.852Z,15.90
2018-09-18T16:01:38.388Z,10.80
2018-09-18T16:04:05.998Z,13.20
2018-09-18T16:06:33.576Z,10.37
2018-09-18T16:09:01.130Z,16.40
2018-09-18T16:11:28.698Z,12.80
2018-09-18T16:13:56.248Z,11.00
2018-09-18T16:16:23.845Z,13.00
2018-09-18T16:18:51.380Z,11.50
2018-09-18T16:21:18.968Z,14.00
2018-09-18T16:23:46.551Z,13.00
2018-09-18T16:26:14.138Z,14.27
2018-09-18T16:28:41.675Z,13.53
2018-09-18T16:31:09.244Z,14.77
2018-09-18T16:33:36.857Z,20.63
2018-09-18T16:36:04.468Z,14.73
2018-09-18T16:38:32.068Z,14.23
2018-09-18T16:40:59.653Z,15.33
2018-09-18T16:43:27.253Z,16.30
2018-09-18T16:45:54.819Z,13.57
2018-09-18T16:48:22.399Z,13.83
2018-09-18T16:50:49.963Z,10.57
2018-09-18T16:53:17.547Z,15.30
2018-09-18T16:55:45.123Z,16.90
2018-09-18T16:58:12.686Z,14.90
2018-09-18T17:00:40.342Z,25.23
2018-09-18T17:03:07.833Z,16.37
2018-09-18T17:05:35.425Z,13.50
2018-09-18T17:08:03.019Z,15.00
2018-09-18T17:10:30.706Z,15.43
2018-09-18T17:12:58.276Z,19.73
2018-09-18T17:15:25.892Z,17.00
2018-09-18T17:17:53.521Z,14.30
2018-09-18T17:20:21.105Z,14.97
2018-09-18T17:22:48.713Z,18.57
2018-09-18T17:25:16.373Z,17.97
2018-09-18T17:27:44.010Z,18.93
2018-09-18T17:30:11.654Z,13.47
2018-09-18T17:32:39.288Z,17.60
2018-09-18T17:35:07.040Z,15.73
2018-09-18T17:37:34.803Z,19.90
2018-09-18T17:40:02.536Z,19.23
2018-09-18T17:42:31.041Z,16.20
2018-09-18T17:44:58.699Z,17.23
2018-09-18T17:47:26.374Z,15.70
2018-09-18T17:49:54.300Z,18.53
2018-09-18T17:52:21.977Z,17.10
2018-09-18T17:54:49.624Z,16.27
2018-09-18T17:57:17.521Z,16.47
2018-09-18T17:59:45.973Z,14.03
2018-09-18T18:02:13.638Z,15.43
2018-09-18T18:04:41.282Z,23.47
2018-09-18T18:07:08.967Z,17.73
2018-09-18T18:09:36.769Z,21.30
2018-09-18T18:12:04.539Z,17.63
2018-09-18T18:14:32.305Z,18.10
2018-09-18T18:17:01.238Z,23.63
2018-09-18T18:19:28.918Z,21.97
2018-09-18T18:21:56.639Z,11.50
2018-09-18T18:24:24.360Z,9.63
2018-09-18T18:26:52.036Z,9.37
2018-09-18T18:29:19.766Z,8.40
2018-09-18T18:31:47.530Z,9.00
2018-09-18T18:34:15.184Z,5.63
2018-09-18T18:36:42.894Z,8.73
2018-09-18T18:39:11.315Z,8.83
2018-09-18T18:41:39.366Z,10.30
2018-09-18T18:44:07.766Z,7.80
2018-09-18T18:46:35.539Z,8.07
2018-09-18T18:49:03.274Z,7.60
2018-09-18T18:51:31.195Z,8.70
2018-09-18T18:53:58.918Z,10.60
2018-09-18T18:56:27.484Z,9.20
2018-09-18T18:58:55.225Z,10.20
2018-09-18T19:01:22.923Z,10.50
2018-09-18T19:03:50.644Z,5.27
2018-09-18T19:06:18.998Z,9.37
2018-09-18T19:08:46.881Z,8.50
2018-09-18T19:11:15.054Z,10.93
2018-09-18T19:13:42.935Z,8.83
2018-09-18T19:16:10.647Z,6.80
2018-09-18T19:18:39.475Z,8.33
2018-09-18T19:21:07.823Z,11.83
2018-09-18T19:23:36.591Z,7.37
2018-09-18T19:26:09.920Z,12.63
2018-09-18T19:28:37.642Z,7.30
2018-09-18T19:31:06.484Z,14.50
2018-09-18T19:33:34.247Z,8.10
2018-09-18T19:36:02.872Z,7.17
2018-09-18T19:38:30.625Z,13.63
2018-09-18T19:40:58.345Z,10.77
2018-09-18T19:43:26.957Z,6.03
2018-09-18T19:45:54.834Z,7.43
2018-09-18T19:48:22.585Z,9.53
2018-09-18T19:50:50.248Z,13.00
2018-09-18T19:53:17.923Z,8.87
2018-09-18T19:55:45.651Z,9.73
2018-09-18T19:58:14.224Z,6.90
2018-09-18T20:00:41.993Z,6.83
2018-09-18T20:03:09.729Z,11.67
2018-09-18T20:05:37.383Z,9.57
2018-09-18T20:08:06.134Z,8.43
2018-09-18T20:10:33.904Z,8.43
2018-09-18T20:13:01.835Z,5.97
2018-09-18T20:15:29.620Z,7.00
2018-09-18T20:17:57.328Z,6.40
2018-09-18T20:20:25.317Z,6.20
2018-09-18T20:22:53.569Z,6.30
2018-09-18T20:25:21.224Z,4.00
2018-09-18T20:27:48.928Z,7.63
2018-09-18T20:30:16.648Z,6.30
2018-09-18T20:32:44.624Z,6.13
2018-09-18T20:35:12.285Z,4.93
2018-09-18T20:37:40.194Z,5.07
2018-09-18T20:40:07.880Z,4.53
2018-09-18T20:42:35.517Z,5.00
2018-09-18T20:45:03.258Z,5.40
2018-09-18T20:47:31.732Z,4.20
2018-09-18T20:49:59.494Z,3.57
2018-09-18T20:52:27.181Z,6.33
2018-09-18T20:54:54.814Z,9.10
2018-09-18T20:57:22.500Z,5.10
2018-09-18T20:59:50.137Z,4.53
2018-09-18T21:02:17.767Z,7.37
2018-09-18T21:04:45.348Z,8.90
2018-09-18T21:07:12.922Z,6.67
2018-09-18T21:09:40.492Z,7.77
2018-09-18T21:12:08.047Z,4.33
2018-09-18T21:14:35.589Z,7.33
2018-09-18T21:17:03.209Z,8.07
2018-09-18T21:19:30.850Z,5.43
2018-09-18T21:21:58.412Z,9.80
2018-09-18T21:24:26.302Z,5.70
2018-09-18T21:26:53.832Z,6.47
2018-09-18T21:29:21.380Z,6.60
2018-09-18T21:31:49.002Z,6.00
2018-09-18T21:34:16.539Z,8.70
2018-09-18T21:36:44.231Z,7.67
2018-09-18T21:39:11.852Z,5.97
2018-09-18T21:41:39.387Z,7.50
2018-09-18T21:44:06.963Z,7.17
2018-09-18T21:46:34.560Z,9.00
2018-09-18T21:49:02.207Z,7.13
2018-09-18T21:51:29.795Z,6.40
2018-09-18T21:53:57.301Z,4.97
2018-09-18T21:56:24.869Z,8.37
2018-09-18T21:58:52.464Z,6.63
2018-09-18T22:01:20.023Z,7.63
2018-09-18T22:03:47.559Z,7.70
2018-09-18T22:06:15.129Z,8.77
2018-09-18T22:08:42.694Z,11.07
2018-09-18T22:11:10.264Z,7.80
2018-09-18T22:13:37.876Z,52.60
2018-09-18T22:16:05.488Z,39.73
2018-09-18T22:18:33.021Z,15.07
2018-09-18T22:21:00.587Z,12.00
2018-09-18T22:23:28.153Z,7.93
2018-09-18T22:25:55.687Z,11.97
2018-09-18T22:28:23.250Z,11.13
2018-09-18T22:30:50.770Z,9.70
2018-09-18T22:33:18.452Z,12.30
2018-09-18T22:35:45.998Z,7.17
2018-09-18T22:38:13.620Z,8.70
2018-09-18T22:40:41.145Z,7.53
2018-09-18T22:43:08.705Z,8.93
2018-09-18T22:45:36.267Z,9.50
2018-09-18T22:48:03.787Z,7.07
2018-09-18T22:50:31.516Z,17.80
2018-09-18T22:52:59.045Z,7.90
2018-09-18T22:55:26.563Z,9.03
2018-09-18T22:57:54.096Z,9.93
2018-09-18T23:00:21.692Z,8.07
2018-09-18T23:02:49.232Z,17.90
2018-09-18T23:05:16.792Z,10.53
2018-09-18T23:07:44.332Z,12.73
2018-09-18T23:10:11.898Z,8.60
2018-09-18T23:12:39.421Z,7.63
2018-09-18T23:15:07.112Z,7.40
2018-09-18T23:17:34.619Z,11.37
2018-09-18T23:20:02.150Z,7.60
2018-09-18T23:22:29.737Z,7.30
2018-09-18T23:24:57.293Z,15.93
2018-09-18T23:27:24.938Z,6.93
2018-09-18T23:29:52.485Z,6.50
2018-09-18T23:32:20.037Z,5.60
2018-09-18T23:34:47.579Z,7.73
2018-09-18T23:37:15.111Z,9.10
2018-09-18T23:39:42.666Z,8.33
2018-09-18T23:42:10.199Z,7.43
2018-09-18T23:44:37.743Z,10.17
2018-09-18T23:47:05.243Z,13.00
2018-09-18T23:49:32.923Z,11.10
2018-09-18T23:52:00.485Z,11.63
2018-09-18T23:54:28.227Z,10.37
2018-09-18T23:56:55.761Z,9.40
2018-09-18T23:59:23.387Z,9.90
